sensor_id;sensor_type;location;lat;lon;timestamp;temperature;humidity
3069;DHT22;1545;51.728;8.796;2023-03-01T00:00:54;-2.80;92.30
3069;DHT22;1545;51.728;8.796;2023-03-01T00:03:19;-2.80;91.80
3069;DHT22;1545;51.728;8.796;2023-03-01T00:05:46;-2.90;92.00
3069;DHT22;1545;51.728;8.796;2023-03-01T00:08:11;-3.00;92.10
3069;DHT22;1545;51.728;8.796;2023-03-01T00:10:37;-2.90;92.20
3069;DHT22;1545;51.728;8.796;2023-03-01T00:13:02;-3.10;91.70
3069;DHT22;1545;51.728;8.796;2023-03-01T00:15:30;-3.10;92.30
3069;DHT22;1545;51.728;8.796;2023-03-01T00:17:56;-3.10;92.70
3069;DHT22;1545;51.728;8.796;2023-03-01T00:20:22;-3.20;92.70
3069;DHT22;1545;51.728;8.796;2023-03-01T00:22:47;-3.10;93.10
3069;DHT22;1545;51.728;8.796;2023-03-01T00:25:13;-3.10;93.10
3069;DHT22;1545;51.728;8.796;2023-03-01T00:27:38;-3.20;92.80
3069;DHT22;1545;51.728;8.796;2023-03-01T00:30:04;-3.30;92.90
3069;DHT22;1545;51.728;8.796;2023-03-01T00:32:30;-3.40;92.90
3069;DHT22;1545;51.728;8.796;2023-03-01T00:34:56;-3.40;93.30
3069;DHT22;1545;51.728;8.796;2023-03-01T00:37:21;-3.30;93.70
3069;DHT22;1545;51.728;8.796;2023-03-01T00:39:47;-3.20;93.80
3069;DHT22;1545;51.728;8.796;2023-03-01T00:42:13;-3.20;93.40
3069;DHT22;1545;51.728;8.796;2023-03-01T00:44:38;-3.30;93.20
3069;DHT22;1545;51.728;8.796;2023-03-01T00:47:04;-3.30;93.40
3069;DHT22;1545;51.728;8.796;2023-03-01T00:49:30;-3.30;93.40
3069;DHT22;1545;51.728;8.796;2023-03-01T00:51:55;-3.50;93.00
3069;DHT22;1545;51.728;8.796;2023-03-01T00:54:21;-3.70;92.90
3069;DHT22;1545;51.728;8.796;2023-03-01T00:56:46;-3.70;93.30
3069;DHT22;1545;51.728;8.796;2023-03-01T00:59:12;-3.60;94.10
3069;DHT22;1545;51.728;8.796;2023-03-01T01:01:37;-3.60;94.20
3069;DHT22;1545;51.728;8.796;2023-03-01T01:04:06;-3.50;94.60
3069;DHT22;1545;51.728;8.796;2023-03-01T01:06:35;-3.30;94.70
3069;DHT22;1545;51.728;8.796;2023-03-01T01:09:01;-3.20;94.10
3069;DHT22;1545;51.728;8.796;2023-03-01T01:11:29;-3.10;93.70
3069;DHT22;1545;51.728;8.796;2023-03-01T01:13:55;-3.00;93.20
3069;DHT22;1545;51.728;8.796;2023-03-01T01:16:23;-2.90;92.80
3069;DHT22;1545;51.728;8.796;2023-03-01T01:18:49;-3.00;92.30
3069;DHT22;1545;51.728;8.796;2023-03-01T01:21:17;-3.00;92.20
3069;DHT22;1545;51.728;8.796;2023-03-01T01:23:43;-3.00;92.00
3069;DHT22;1545;51.728;8.796;2023-03-01T01:26:16;-3.10;92.00
3069;DHT22;1545;51.728;8.796;2023-03-01T01:28:42;-3.10;92.10
3069;DHT22;1545;51.728;8.796;2023-03-01T01:31:08;-3.20;92.30
3069;DHT22;1545;51.728;8.796;2023-03-01T01:33:34;-3.10;92.30
3069;DHT22;1545;51.728;8.796;2023-03-01T01:36:00;-3.10;92.40
3069;DHT22;1545;51.728;8.796;2023-03-01T01:38:25;-3.10;92.30
3069;DHT22;1545;51.728;8.796;2023-03-01T01:40:51;-3.00;92.30
3069;DHT22;1545;51.728;8.796;2023-03-01T01:43:22;-3.00;92.00
3069;DHT22;1545;51.728;8.796;2023-03-01T01:45:49;-3.00;91.90
3069;DHT22;1545;51.728;8.796;2023-03-01T01:48:19;-3.10;91.90
3069;DHT22;1545;51.728;8.796;2023-03-01T01:50:59;-3.10;91.80
3069;DHT22;1545;51.728;8.796;2023-03-01T01:53:26;-3.10;91.90
3069;DHT22;1545;51.728;8.796;2023-03-01T01:55:54;-3.00;92.10
3069;DHT22;1545;51.728;8.796;2023-03-01T01:58:24;-3.00;92.30
3069;DHT22;1545;51.728;8.796;2023-03-01T02:00:51;-3.00;92.30
3069;DHT22;1545;51.728;8.796;2023-03-01T02:03:20;-3.00;92.30
3069;DHT22;1545;51.728;8.796;2023-03-01T02:05:57;-2.90;92.30
3069;DHT22;1545;51.728;8.796;2023-03-01T02:08:26;-2.90;92.00
3069;DHT22;1545;51.728;8.796;2023-03-01T02:10:54;-2.90;91.90
3069;DHT22;1545;51.728;8.796;2023-03-01T02:13:20;-2.90;92.00
3069;DHT22;1545;51.728;8.796;2023-03-01T02:15:46;-2.90;91.90
3069;DHT22;1545;51.728;8.796;2023-03-01T02:18:14;-3.00;91.80
3069;DHT22;1545;51.728;8.796;2023-03-01T02:23:44;-3.00;91.90
3069;DHT22;1545;51.728;8.796;2023-03-01T02:26:36;-3.00;91.50
3069;DHT22;1545;51.728;8.796;2023-03-01T02:29:00;-3.00;91.50
3069;DHT22;1545;51.728;8.796;2023-03-01T02:31:25;-3.10;91.50
3069;DHT22;1545;51.728;8.796;2023-03-01T02:34:18;-3.20;92.00
3069;DHT22;1545;51.728;8.796;2023-03-01T02:36:47;-3.30;92.00
3069;DHT22;1545;51.728;8.796;2023-03-01T02:39:22;-3.40;92.40
3069;DHT22;1545;51.728;8.796;2023-03-01T02:41:52;-3.50;92.60
3069;DHT22;1545;51.728;8.796;2023-03-01T02:44:18;-3.70;92.90
3069;DHT22;1545;51.728;8.796;2023-03-01T02:46:47;-3.70;93.40
3069;DHT22;1545;51.728;8.796;2023-03-01T02:49:34;-3.80;93.50
3069;DHT22;1545;51.728;8.796;2023-03-01T02:52:21;-3.80;93.80
3069;DHT22;1545;51.728;8.796;2023-03-01T02:55:16;-3.70;94.30
3069;DHT22;1545;51.728;8.796;2023-03-01T02:57:44;-3.70;94.20
3069;DHT22;1545;51.728;8.796;2023-03-01T03:00:16;-3.60;94.20
3069;DHT22;1545;51.728;8.796;2023-03-01T03:02:45;-3.60;93.80
3069;DHT22;1545;51.728;8.796;2023-03-01T03:05:17;-3.60;93.70
3069;DHT22;1545;51.728;8.796;2023-03-01T03:07:45;-3.60;93.80
3069;DHT22;1545;51.728;8.796;2023-03-01T03:10:15;-3.50;93.70
3069;DHT22;1545;51.728;8.796;2023-03-01T03:12:41;-3.50;93.80
3069;DHT22;1545;51.728;8.796;2023-03-01T03:15:09;-3.50;93.60
3069;DHT22;1545;51.728;8.796;2023-03-01T03:17:39;-3.50;93.60
3069;DHT22;1545;51.728;8.796;2023-03-01T03:20:07;-3.50;93.40
3069;DHT22;1545;51.728;8.796;2023-03-01T03:22:39;-3.60;93.00
3069;DHT22;1545;51.728;8.796;2023-03-01T03:25:06;-3.60;93.20
3069;DHT22;1545;51.728;8.796;2023-03-01T03:27:36;-3.60;93.20
3069;DHT22;1545;51.728;8.796;2023-03-01T03:30:04;-3.60;93.20
3069;DHT22;1545;51.728;8.796;2023-03-01T03:32:35;-3.80;93.30
3069;DHT22;1545;51.728;8.796;2023-03-01T03:35:00;-3.90;93.30
3069;DHT22;1545;51.728;8.796;2023-03-01T03:37:26;-3.90;93.60
3069;DHT22;1545;51.728;8.796;2023-03-01T03:40:10;-4.00;93.80
3069;DHT22;1545;51.728;8.796;2023-03-01T03:42:40;-4.00;94.20
3069;DHT22;1545;51.728;8.796;2023-03-01T03:45:07;-4.10;94.30
3069;DHT22;1545;51.728;8.796;2023-03-01T03:47:32;-4.10;94.40
3069;DHT22;1545;51.728;8.796;2023-03-01T03:49:58;-4.10;94.50
3069;DHT22;1545;51.728;8.796;2023-03-01T03:52:23;-4.10;94.60
3069;DHT22;1545;51.728;8.796;2023-03-01T03:54:49;-3.90;94.90
3069;DHT22;1545;51.728;8.796;2023-03-01T03:57:14;-3.90;94.90
3069;DHT22;1545;51.728;8.796;2023-03-01T03:59:40;-3.80;94.80
3069;DHT22;1545;51.728;8.796;2023-03-01T04:02:05;-3.80;94.40
3069;DHT22;1545;51.728;8.796;2023-03-01T04:04:33;-3.70;94.50
3069;DHT22;1545;51.728;8.796;2023-03-01T04:06:58;-3.70;94.40
3069;DHT22;1545;51.728;8.796;2023-03-01T04:09:24;-3.70;94.40
3069;DHT22;1545;51.728;8.796;2023-03-01T04:11:49;-3.60;94.50
3069;DHT22;1545;51.728;8.796;2023-03-01T04:14:15;-3.50;94.30
3069;DHT22;1545;51.728;8.796;2023-03-01T04:16:40;-3.50;94.00
3069;DHT22;1545;51.728;8.796;2023-03-01T04:19:06;-3.50;93.60
3069;DHT22;1545;51.728;8.796;2023-03-01T04:21:31;-3.60;93.40
3069;DHT22;1545;51.728;8.796;2023-03-01T04:23:57;-3.50;93.40
3069;DHT22;1545;51.728;8.796;2023-03-01T04:26:22;-3.50;93.40
3069;DHT22;1545;51.728;8.796;2023-03-01T04:28:48;-3.50;93.20
3069;DHT22;1545;51.728;8.796;2023-03-01T04:31:17;-3.50;93.10
3069;DHT22;1545;51.728;8.796;2023-03-01T04:33:54;-3.50;93.10
3069;DHT22;1545;51.728;8.796;2023-03-01T04:36:22;-3.40;93.10
3069;DHT22;1545;51.728;8.796;2023-03-01T04:38:48;-3.40;93.10
3069;DHT22;1545;51.728;8.796;2023-03-01T04:41:16;-3.40;93.10
3069;DHT22;1545;51.728;8.796;2023-03-01T04:43:41;-3.50;93.00
3069;DHT22;1545;51.728;8.796;2023-03-01T04:46:10;-3.50;93.10
3069;DHT22;1545;51.728;8.796;2023-03-01T04:48:37;-3.60;93.20
3069;DHT22;1545;51.728;8.796;2023-03-01T04:51:04;-3.60;93.40
3069;DHT22;1545;51.728;8.796;2023-03-01T04:53:30;-3.60;93.50
3069;DHT22;1545;51.728;8.796;2023-03-01T04:55:56;-3.60;93.20
3069;DHT22;1545;51.728;8.796;2023-03-01T04:58:26;-3.60;93.60
3069;DHT22;1545;51.728;8.796;2023-03-01T05:00:53;-3.60;93.20
3069;DHT22;1545;51.728;8.796;2023-03-01T05:03:19;-3.70;93.50
3069;DHT22;1545;51.728;8.796;2023-03-01T05:05:46;-3.70;93.60
3069;DHT22;1545;51.728;8.796;2023-03-01T05:08:13;-3.70;93.60
3069;DHT22;1545;51.728;8.796;2023-03-01T05:10:44;-3.80;93.50
3069;DHT22;1545;51.728;8.796;2023-03-01T05:13:11;-3.80;93.90
3069;DHT22;1545;51.728;8.796;2023-03-01T05:15:39;-3.80;94.10
3069;DHT22;1545;51.728;8.796;2023-03-01T05:18:04;-3.60;94.30
3069;DHT22;1545;51.728;8.796;2023-03-01T05:20:36;-3.70;94.20
3069;DHT22;1545;51.728;8.796;2023-03-01T05:23:02;-3.70;94.10
3069;DHT22;1545;51.728;8.796;2023-03-01T05:25:30;-3.70;93.90
3069;DHT22;1545;51.728;8.796;2023-03-01T05:28:02;-3.60;93.90
3069;DHT22;1545;51.728;8.796;2023-03-01T05:30:30;-3.70;93.80
3069;DHT22;1545;51.728;8.796;2023-03-01T05:32:56;-3.70;93.90
3069;DHT22;1545;51.728;8.796;2023-03-01T05:35:22;-3.70;93.90
3069;DHT22;1545;51.728;8.796;2023-03-01T05:37:48;-3.70;93.90
3069;DHT22;1545;51.728;8.796;2023-03-01T05:40:19;-3.70;93.90
3069;DHT22;1545;51.728;8.796;2023-03-01T05:42:51;-3.70;93.80
3069;DHT22;1545;51.728;8.796;2023-03-01T05:45:17;-3.70;93.80
3069;DHT22;1545;51.728;8.796;2023-03-01T05:47:44;-3.70;93.80
3069;DHT22;1545;51.728;8.796;2023-03-01T05:50:22;-3.70;93.80
3069;DHT22;1545;51.728;8.796;2023-03-01T05:52:50;-3.60;93.90
3069;DHT22;1545;51.728;8.796;2023-03-01T05:55:18;-3.70;93.70
3069;DHT22;1545;51.728;8.796;2023-03-01T05:57:44;-3.60;93.70
3069;DHT22;1545;51.728;8.796;2023-03-01T06:00:11;-3.70;93.70
3069;DHT22;1545;51.728;8.796;2023-03-01T06:02:37;-3.70;93.60
3069;DHT22;1545;51.728;8.796;2023-03-01T06:05:04;-3.60;93.70
3069;DHT22;1545;51.728;8.796;2023-03-01T06:07:30;-3.60;93.50
3069;DHT22;1545;51.728;8.796;2023-03-01T06:09:55;-3.60;93.10
3069;DHT22;1545;51.728;8.796;2023-03-01T06:12:20;-3.70;93.40
3069;DHT22;1545;51.728;8.796;2023-03-01T06:14:46;-3.70;93.50
3069;DHT22;1545;51.728;8.796;2023-03-01T06:17:13;-3.70;93.50
3069;DHT22;1545;51.728;8.796;2023-03-01T06:19:38;-3.60;93.40
3069;DHT22;1545;51.728;8.796;2023-03-01T06:22:04;-3.60;93.40
3069;DHT22;1545;51.728;8.796;2023-03-01T06:24:29;-3.60;93.20
3069;DHT22;1545;51.728;8.796;2023-03-01T06:26:55;-3.60;93.20
3069;DHT22;1545;51.728;8.796;2023-03-01T06:29:21;-3.60;93.20
3069;DHT22;1545;51.728;8.796;2023-03-01T06:31:48;-3.60;93.20
3069;DHT22;1545;51.728;8.796;2023-03-01T06:34:14;-3.60;93.40
3069;DHT22;1545;51.728;8.796;2023-03-01T06:36:39;-3.60;93.40
3069;DHT22;1545;51.728;8.796;2023-03-01T06:39:05;-3.60;93.50
3069;DHT22;1545;51.728;8.796;2023-03-01T06:41:31;-3.60;93.20
3069;DHT22;1545;51.728;8.796;2023-03-01T06:43:57;-3.50;93.50
3069;DHT22;1545;51.728;8.796;2023-03-01T06:46:24;-3.40;93.50
3069;DHT22;1545;51.728;8.796;2023-03-01T06:48:49;-3.40;93.50
3069;DHT22;1545;51.728;8.796;2023-03-01T06:51:15;-3.30;93.40
3069;DHT22;1545;51.728;8.796;2023-03-01T06:53:40;-3.20;93.40
3069;DHT22;1545;51.728;8.796;2023-03-01T06:56:06;-3.10;93.20
3069;DHT22;1545;51.728;8.796;2023-03-01T06:58:31;-3.00;92.70
3069;DHT22;1545;51.728;8.796;2023-03-01T07:00:57;-2.90;92.60
3069;DHT22;1545;51.728;8.796;2023-03-01T07:03:22;-2.90;92.50
3069;DHT22;1545;51.728;8.796;2023-03-01T07:05:51;-2.80;92.20
3069;DHT22;1545;51.728;8.796;2023-03-01T07:08:18;-2.80;92.30
3069;DHT22;1545;51.728;8.796;2023-03-01T07:10:44;-2.60;92.20
3069;DHT22;1545;51.728;8.796;2023-03-01T07:13:09;-2.60;92.10
3069;DHT22;1545;51.728;8.796;2023-03-01T07:15:35;-2.50;91.90
3069;DHT22;1545;51.728;8.796;2023-03-01T07:18:01;-2.40;91.90
3069;DHT22;1545;51.728;8.796;2023-03-01T07:20:26;-2.40;91.80
3069;DHT22;1545;51.728;8.796;2023-03-01T07:22:53;-2.30;91.80
3069;DHT22;1545;51.728;8.796;2023-03-01T07:25:18;-2.30;91.80
3069;DHT22;1545;51.728;8.796;2023-03-01T07:27:49;-2.30;91.90
3069;DHT22;1545;51.728;8.796;2023-03-01T07:30:15;-2.20;91.80
3069;DHT22;1545;51.728;8.796;2023-03-01T07:32:40;-2.00;91.70
3069;DHT22;1545;51.728;8.796;2023-03-01T07:35:06;-1.90;91.40
3069;DHT22;1545;51.728;8.796;2023-03-01T07:37:32;-1.80;91.10
3069;DHT22;1545;51.728;8.796;2023-03-01T07:39:57;-1.70;91.00
3069;DHT22;1545;51.728;8.796;2023-03-01T07:42:23;-1.60;91.00
3069;DHT22;1545;51.728;8.796;2023-03-01T07:44:48;-1.60;91.00
3069;DHT22;1545;51.728;8.796;2023-03-01T07:47:15;-1.50;90.70
3069;DHT22;1545;51.728;8.796;2023-03-01T07:49:40;-1.50;90.50
3069;DHT22;1545;51.728;8.796;2023-03-01T07:52:06;-1.40;90.40
3069;DHT22;1545;51.728;8.796;2023-03-01T07:54:31;-1.40;90.50
3069;DHT22;1545;51.728;8.796;2023-03-01T07:56:57;-1.30;90.60
3069;DHT22;1545;51.728;8.796;2023-03-01T07:59:23;-1.10;90.40
3069;DHT22;1545;51.728;8.796;2023-03-01T08:01:54;-0.90;90.20
3069;DHT22;1545;51.728;8.796;2023-03-01T08:04:20;-0.70;89.90
3069;DHT22;1545;51.728;8.796;2023-03-01T08:06:45;-0.70;89.50
3069;DHT22;1545;51.728;8.796;2023-03-01T08:09:11;-0.60;88.60
3069;DHT22;1545;51.728;8.796;2023-03-01T08:11:36;-0.50;88.20
3069;DHT22;1545;51.728;8.796;2023-03-01T08:14:02;-0.30;88.00
3069;DHT22;1545;51.728;8.796;2023-03-01T08:16:28;-0.30;87.70
3069;DHT22;1545;51.728;8.796;2023-03-01T08:18:53;-0.30;87.60
3069;DHT22;1545;51.728;8.796;2023-03-01T08:21:21;-0.30;87.50
3069;DHT22;1545;51.728;8.796;2023-03-01T08:23:47;-0.20;87.40
3069;DHT22;1545;51.728;8.796;2023-03-01T08:26:18;-0.20;87.30
3069;DHT22;1545;51.728;8.796;2023-03-01T08:28:44;-0.10;87.10
3069;DHT22;1545;51.728;8.796;2023-03-01T08:31:22;0.00;86.80
3069;DHT22;1545;51.728;8.796;2023-03-01T08:33:50;0.00;86.20
3069;DHT22;1545;51.728;8.796;2023-03-01T08:36:20;0.10;85.60
3069;DHT22;1545;51.728;8.796;2023-03-01T08:38:46;0.20;84.90
3069;DHT22;1545;51.728;8.796;2023-03-01T08:41:12;0.30;84.80
3069;DHT22;1545;51.728;8.796;2023-03-01T08:43:37;0.50;84.20
3069;DHT22;1545;51.728;8.796;2023-03-01T08:46:03;0.70;84.10
3069;DHT22;1545;51.728;8.796;2023-03-01T08:48:28;1.00;84.00
3069;DHT22;1545;51.728;8.796;2023-03-01T08:50:54;1.30;81.20
3069;DHT22;1545;51.728;8.796;2023-03-01T08:53:20;1.60;80.10
3069;DHT22;1545;51.728;8.796;2023-03-01T08:55:45;1.80;79.70
3069;DHT22;1545;51.728;8.796;2023-03-01T08:58:11;2.00;79.10
3069;DHT22;1545;51.728;8.796;2023-03-01T09:00:37;2.10;79.60
3069;DHT22;1545;51.728;8.796;2023-03-01T09:03:02;2.20;79.80
3069;DHT22;1545;51.728;8.796;2023-03-01T09:05:28;2.40;79.00
3069;DHT22;1545;51.728;8.796;2023-03-01T09:07:53;2.40;78.80
3069;DHT22;1545;51.728;8.796;2023-03-01T09:10:19;2.40;79.00
3069;DHT22;1545;51.728;8.796;2023-03-01T09:12:44;2.40;78.20
3069;DHT22;1545;51.728;8.796;2023-03-01T09:15:10;2.40;78.20
3069;DHT22;1545;51.728;8.796;2023-03-01T09:17:36;2.50;79.30
3069;DHT22;1545;51.728;8.796;2023-03-01T09:20:01;2.50;77.90
3069;DHT22;1545;51.728;8.796;2023-03-01T09:22:27;2.60;78.10
3069;DHT22;1545;51.728;8.796;2023-03-01T09:24:52;2.70;78.90
3069;DHT22;1545;51.728;8.796;2023-03-01T09:27:18;2.70;77.10
3069;DHT22;1545;51.728;8.796;2023-03-01T09:29:45;2.70;77.40
3069;DHT22;1545;51.728;8.796;2023-03-01T09:32:10;2.80;77.70
3069;DHT22;1545;51.728;8.796;2023-03-01T09:34:36;2.80;76.90
3069;DHT22;1545;51.728;8.796;2023-03-01T09:37:22;2.90;78.20
3069;DHT22;1545;51.728;8.796;2023-03-01T09:39:47;3.00;76.50
3069;DHT22;1545;51.728;8.796;2023-03-01T09:42:13;3.00;77.10
3069;DHT22;1545;51.728;8.796;2023-03-01T09:44:46;3.00;76.80
3069;DHT22;1545;51.728;8.796;2023-03-01T09:47:23;2.90;75.90
3069;DHT22;1545;51.728;8.796;2023-03-01T09:50:12;3.00;77.00
3069;DHT22;1545;51.728;8.796;2023-03-01T09:53:07;3.10;75.30
3069;DHT22;1545;51.728;8.796;2023-03-01T09:58:51;3.20;74.90
3069;DHT22;1545;51.728;8.796;2023-03-01T10:01:28;3.10;73.60
3069;DHT22;1545;51.728;8.796;2023-03-01T10:07:05;3.10;74.90
3069;DHT22;1545;51.728;8.796;2023-03-01T10:09:39;3.30;74.60
3069;DHT22;1545;51.728;8.796;2023-03-01T10:12:10;3.40;74.50
3069;DHT22;1545;51.728;8.796;2023-03-01T10:14:42;3.50;75.20
3069;DHT22;1545;51.728;8.796;2023-03-01T10:20:14;3.40;72.50
3069;DHT22;1545;51.728;8.796;2023-03-01T10:22:40;3.50;73.20
3069;DHT22;1545;51.728;8.796;2023-03-01T10:25:06;3.70;75.70
3069;DHT22;1545;51.728;8.796;2023-03-01T10:27:54;3.80;74.20
3069;DHT22;1545;51.728;8.796;2023-03-01T10:30:41;3.80;73.30
3069;DHT22;1545;51.728;8.796;2023-03-01T10:33:27;3.70;72.70
3069;DHT22;1545;51.728;8.796;2023-03-01T10:35:54;3.70;72.90
3069;DHT22;1545;51.728;8.796;2023-03-01T10:38:20;3.80;73.40
3069;DHT22;1545;51.728;8.796;2023-03-01T10:41:06;3.80;73.40
3069;DHT22;1545;51.728;8.796;2023-03-01T10:43:47;3.80;71.60
3069;DHT22;1545;51.728;8.796;2023-03-01T10:46:26;3.90;71.10
3069;DHT22;1545;51.728;8.796;2023-03-01T10:49:17;3.90;70.90
3069;DHT22;1545;51.728;8.796;2023-03-01T10:51:45;4.00;69.90
3069;DHT22;1545;51.728;8.796;2023-03-01T10:54:28;4.10;69.90
3069;DHT22;1545;51.728;8.796;2023-03-01T10:56:56;4.10;69.20
3069;DHT22;1545;51.728;8.796;2023-03-01T10:59:33;4.20;69.50
3069;DHT22;1545;51.728;8.796;2023-03-01T11:02:13;4.20;69.00
3069;DHT22;1545;51.728;8.796;2023-03-01T11:04:42;4.20;69.20
3069;DHT22;1545;51.728;8.796;2023-03-01T11:07:20;4.30;69.10
3069;DHT22;1545;51.728;8.796;2023-03-01T11:09:46;4.40;68.30
3069;DHT22;1545;51.728;8.796;2023-03-01T11:12:14;4.40;68.90
3069;DHT22;1545;51.728;8.796;2023-03-01T11:14:48;4.40;69.80
3069;DHT22;1545;51.728;8.796;2023-03-01T11:17:30;4.40;69.80
3069;DHT22;1545;51.728;8.796;2023-03-01T11:22:33;4.50;71.70
3069;DHT22;1545;51.728;8.796;2023-03-01T11:25:00;4.50;70.90
3069;DHT22;1545;51.728;8.796;2023-03-01T11:27:29;4.50;72.00
3069;DHT22;1545;51.728;8.796;2023-03-01T11:30:01;4.50;71.70
3069;DHT22;1545;51.728;8.796;2023-03-01T11:32:38;4.50;70.90
3069;DHT22;1545;51.728;8.796;2023-03-01T11:35:17;4.40;72.00
3069;DHT22;1545;51.728;8.796;2023-03-01T11:37:59;4.50;72.20
3069;DHT22;1545;51.728;8.796;2023-03-01T11:40:48;4.60;72.10
3069;DHT22;1545;51.728;8.796;2023-03-01T12:00:34;5.00;71.10
3069;DHT22;1545;51.728;8.796;2023-03-01T12:03:26;5.00;69.80
3069;DHT22;1545;51.728;8.796;2023-03-01T12:06:16;4.90;68.90
3069;DHT22;1545;51.728;8.796;2023-03-01T12:11:41;5.00;69.00
3069;DHT22;1545;51.728;8.796;2023-03-01T12:20:11;5.10;68.60
3069;DHT22;1545;51.728;8.796;2023-03-01T12:35:51;5.30;70.70
3069;DHT22;1545;51.728;8.796;2023-03-01T12:46:51;5.40;68.90
3069;DHT22;1545;51.728;8.796;2023-03-01T12:52:35;5.50;66.60
3069;DHT22;1545;51.728;8.796;2023-03-01T12:55:08;5.50;66.20
3069;DHT22;1545;51.728;8.796;2023-03-01T13:00:46;5.60;65.70
3069;DHT22;1545;51.728;8.796;2023-03-01T13:03:38;5.60;65.70
3069;DHT22;1545;51.728;8.796;2023-03-01T13:10:16;5.70;64.40
3069;DHT22;1545;51.728;8.796;2023-03-01T13:17:48;5.80;66.00
3069;DHT22;1545;51.728;8.796;2023-03-01T13:20:16;5.90;66.00
3069;DHT22;1545;51.728;8.796;2023-03-01T13:22:43;5.90;65.90
3069;DHT22;1545;51.728;8.796;2023-03-01T13:25:19;5.80;67.10
3069;DHT22;1545;51.728;8.796;2023-03-01T13:27:46;5.60;65.80
3069;DHT22;1545;51.728;8.796;2023-03-01T13:35:54;5.70;67.40
3069;DHT22;1545;51.728;8.796;2023-03-01T13:38:46;5.70;65.20
3069;DHT22;1545;51.728;8.796;2023-03-01T13:41:17;5.60;65.80
3069;DHT22;1545;51.728;8.796;2023-03-01T13:44:01;5.80;66.80
3069;DHT22;1545;51.728;8.796;2023-03-01T13:46:36;5.80;65.90
3069;DHT22;1545;51.728;8.796;2023-03-01T13:49:03;5.80;64.10
3069;DHT22;1545;51.728;8.796;2023-03-01T13:51:29;5.70;63.90
3069;DHT22;1545;51.728;8.796;2023-03-01T13:53:56;5.70;65.90
3069;DHT22;1545;51.728;8.796;2023-03-01T13:56:28;5.70;65.90
3069;DHT22;1545;51.728;8.796;2023-03-01T13:59:04;5.80;65.70
3069;DHT22;1545;51.728;8.796;2023-03-01T14:01:32;5.80;64.10
3069;DHT22;1545;51.728;8.796;2023-03-01T14:03:59;6.00;65.90
3069;DHT22;1545;51.728;8.796;2023-03-01T14:06:32;6.00;64.70
3069;DHT22;1545;51.728;8.796;2023-03-01T14:09:05;5.80;63.90
3069;DHT22;1545;51.728;8.796;2023-03-01T14:14:18;6.00;65.30
3069;DHT22;1545;51.728;8.796;2023-03-01T14:19:57;5.80;64.40
3069;DHT22;1545;51.728;8.796;2023-03-01T14:22:27;5.80;65.90
3069;DHT22;1545;51.728;8.796;2023-03-01T14:25:06;5.80;64.30
3069;DHT22;1545;51.728;8.796;2023-03-01T14:27:41;5.80;65.20
3069;DHT22;1545;51.728;8.796;2023-03-01T14:30:26;5.90;65.10
3069;DHT22;1545;51.728;8.796;2023-03-01T14:33:01;5.90;65.60
3069;DHT22;1545;51.728;8.796;2023-03-01T14:35:35;5.90;66.30
3069;DHT22;1545;51.728;8.796;2023-03-01T14:38:01;5.90;66.40
3069;DHT22;1545;51.728;8.796;2023-03-01T14:40:30;6.00;66.50
3069;DHT22;1545;51.728;8.796;2023-03-01T14:42:58;6.00;66.70
3069;DHT22;1545;51.728;8.796;2023-03-01T14:45:26;6.00;67.90
3069;DHT22;1545;51.728;8.796;2023-03-01T14:47:52;6.00;66.70
3069;DHT22;1545;51.728;8.796;2023-03-01T14:50:25;6.00;67.40
3069;DHT22;1545;51.728;8.796;2023-03-01T14:52:54;5.90;69.00
3069;DHT22;1545;51.728;8.796;2023-03-01T14:55:35;5.90;67.70
3069;DHT22;1545;51.728;8.796;2023-03-01T14:58:03;5.90;68.30
3069;DHT22;1545;51.728;8.796;2023-03-01T15:00:31;5.90;67.90
3069;DHT22;1545;51.728;8.796;2023-03-01T15:03:07;5.90;69.10
3069;DHT22;1545;51.728;8.796;2023-03-01T15:05:35;5.90;67.50
3069;DHT22;1545;51.728;8.796;2023-03-01T15:08:03;5.70;67.20
3069;DHT22;1545;51.728;8.796;2023-03-01T15:10:32;5.70;68.00
3069;DHT22;1545;51.728;8.796;2023-03-01T15:13:31;5.60;67.80
3069;DHT22;1545;51.728;8.796;2023-03-01T15:16:04;5.60;69.00
3069;DHT22;1545;51.728;8.796;2023-03-01T15:18:31;5.60;66.90
3069;DHT22;1545;51.728;8.796;2023-03-01T15:21:06;5.50;67.00
3069;DHT22;1545;51.728;8.796;2023-03-01T15:23:32;5.50;68.30
3069;DHT22;1545;51.728;8.796;2023-03-01T15:25:59;5.50;70.30
3069;DHT22;1545;51.728;8.796;2023-03-01T15:28:31;5.50;68.30
3069;DHT22;1545;51.728;8.796;2023-03-01T15:31:03;5.50;68.90
3069;DHT22;1545;51.728;8.796;2023-03-01T15:33:37;5.50;69.20
3069;DHT22;1545;51.728;8.796;2023-03-01T15:36:33;5.40;69.60
3069;DHT22;1545;51.728;8.796;2023-03-01T15:39:02;5.40;69.30
3069;DHT22;1545;51.728;8.796;2023-03-01T15:41:30;5.40;70.50
3069;DHT22;1545;51.728;8.796;2023-03-01T15:44:00;5.40;69.20
3069;DHT22;1545;51.728;8.796;2023-03-01T15:46:32;5.40;70.00
3069;DHT22;1545;51.728;8.796;2023-03-01T15:49:02;5.30;69.90
3069;DHT22;1545;51.728;8.796;2023-03-01T15:51:34;5.30;70.90
3069;DHT22;1545;51.728;8.796;2023-03-01T15:54:17;5.30;73.40
3069;DHT22;1545;51.728;8.796;2023-03-01T15:56:44;5.20;72.50
3069;DHT22;1545;51.728;8.796;2023-03-01T15:59:10;5.20;71.50
3069;DHT22;1545;51.728;8.796;2023-03-01T16:01:38;5.10;73.00
3069;DHT22;1545;51.728;8.796;2023-03-01T16:04:04;5.10;73.40
3069;DHT22;1545;51.728;8.796;2023-03-01T16:06:30;5.10;73.30
3069;DHT22;1545;51.728;8.796;2023-03-01T16:08:55;5.00;72.90
3069;DHT22;1545;51.728;8.796;2023-03-01T16:11:21;5.00;72.00
3069;DHT22;1545;51.728;8.796;2023-03-01T16:13:47;5.00;71.90
3069;DHT22;1545;51.728;8.796;2023-03-01T16:16:14;4.90;73.30
3069;DHT22;1545;51.728;8.796;2023-03-01T16:18:45;4.90;72.60
3069;DHT22;1545;51.728;8.796;2023-03-01T16:21:14;4.90;71.80
3069;DHT22;1545;51.728;8.796;2023-03-01T16:23:42;4.80;73.10
3069;DHT22;1545;51.728;8.796;2023-03-01T16:26:08;4.70;73.80
3069;DHT22;1545;51.728;8.796;2023-03-01T16:28:34;4.60;73.10
3069;DHT22;1545;51.728;8.796;2023-03-01T16:30:59;4.50;74.50
3069;DHT22;1545;51.728;8.796;2023-03-01T16:33:26;4.50;73.90
3069;DHT22;1545;51.728;8.796;2023-03-01T16:35:52;4.60;73.00
3069;DHT22;1545;51.728;8.796;2023-03-01T16:38:17;4.50;73.80
3069;DHT22;1545;51.728;8.796;2023-03-01T16:40:48;4.30;74.80
3069;DHT22;1545;51.728;8.796;2023-03-01T16:43:14;4.20;75.10
3069;DHT22;1545;51.728;8.796;2023-03-01T16:45:39;4.20;74.10
3069;DHT22;1545;51.728;8.796;2023-03-01T16:48:06;3.90;76.00
3069;DHT22;1545;51.728;8.796;2023-03-01T16:50:32;3.60;76.90
3069;DHT22;1545;51.728;8.796;2023-03-01T16:52:57;3.40;77.90
3069;DHT22;1545;51.728;8.796;2023-03-01T16:55:23;3.20;79.20
3069;DHT22;1545;51.728;8.796;2023-03-01T16:57:48;2.90;79.70
3069;DHT22;1545;51.728;8.796;2023-03-01T17:00:14;2.80;79.80
3069;DHT22;1545;51.728;8.796;2023-03-01T17:02:41;2.90;78.70
3069;DHT22;1545;51.728;8.796;2023-03-01T17:05:07;2.80;79.40
3069;DHT22;1545;51.728;8.796;2023-03-01T17:07:33;2.60;80.00
3069;DHT22;1545;51.728;8.796;2023-03-01T17:10:04;2.60;79.70
3069;DHT22;1545;51.728;8.796;2023-03-01T17:12:30;2.50;80.00
3069;DHT22;1545;51.728;8.796;2023-03-01T17:14:57;2.50;80.10
3069;DHT22;1545;51.728;8.796;2023-03-01T17:17:23;2.40;80.20
3069;DHT22;1545;51.728;8.796;2023-03-01T17:19:48;2.40;79.50
3069;DHT22;1545;51.728;8.796;2023-03-01T17:22:14;2.40;79.70
3069;DHT22;1545;51.728;8.796;2023-03-01T17:24:40;2.40;79.60
3069;DHT22;1545;51.728;8.796;2023-03-01T17:27:06;2.30;80.00
3069;DHT22;1545;51.728;8.796;2023-03-01T17:29:32;2.10;80.30
3069;DHT22;1545;51.728;8.796;2023-03-01T17:31:58;2.00;81.10
3069;DHT22;1545;51.728;8.796;2023-03-01T17:34:24;2.00;81.20
3069;DHT22;1545;51.728;8.796;2023-03-01T17:36:51;1.80;81.20
3069;DHT22;1545;51.728;8.796;2023-03-01T17:39:18;1.70;81.50
3069;DHT22;1545;51.728;8.796;2023-03-01T17:41:51;1.60;81.80
3069;DHT22;1545;51.728;8.796;2023-03-01T17:44:16;1.50;81.80
3069;DHT22;1545;51.728;8.796;2023-03-01T17:46:42;1.50;81.80
3069;DHT22;1545;51.728;8.796;2023-03-01T17:49:07;1.50;82.10
3069;DHT22;1545;51.728;8.796;2023-03-01T17:51:33;1.50;82.10